Terminal Aerodrome Forecast
Issued by NWS Sterling, VA

Home | Current Version | Previous Version | Text Only | Print | Product List | Glossary On
Versions: 1 2 3 4 5 6 7 8 9 10 11 12 13 14 15 16 17 18 19 20 21 22
118
FTUS41 KLWX 222335
TAFCHO
TAF
KCHO 222335Z 2300/2324 04010KT P6SM -RADZ OVC015
     FM230100 04007KT P6SM -RADZ OVC008
     FM230600 05005KT 3SM -RADZ BR OVC003
     FM231200 07004KT 1 1/2SM BR OVC003
     FM231900 17004KT 3SM BR OVC003=

USA.gov is the U.S. government's official web portal to all federal, state and local government web resources and services.